Shelby County Airport Alabaster US
ICAO: KEET
IATA: EET
Category: Medium
Scheduled Services: No

Elevation: 586 ft
TransAlt. 18000 ft.

Airport Communications:
BIRMINGHAM APP/DEP:123.8
ASOS:134.325
CTAF/UNICOM:122.7

KEET Zoom In..

Runways:

(A) RW 16 length 5000 ft width 75 ft
---- / hdg 160

(B) RW 34 length 5000 ft width 75 ft
---- / hdg 340

Location; KEET
Day. 25 / Time. 11.53 Zulu
* Altimeter: 30.00
* Temperature: 13° c. 55.4°f.
* Wind from: VRB° Speed 06 kn.
Dewpoint: 13° c.
Visibility: 6 Statute Miles.
Clouds: Overcast 600 ft.
Conditions: Mist.

KEET 251153Z AUTO VRB06KT 6SM BR OVC006 13/13 A3000 RMK AO2 SLP155 70001 T01330133 10139 20128 53014


Wind From VRB°
Speed 06 kn.

  YouTube Music Video
 
jpsmedia.com for Web Design  worldairports.se 2018   terms of use